sensor_id;sensor_type;location;lat;lon;timestamp;P1;durP1;ratioP1;P2;durP2;ratioP2
65658;SDS011;60181;53.258;6.932;2022-07-12T00:02:03;22.50;;;13.50;;
65658;SDS011;60181;53.258;6.932;2022-07-12T00:06:31;22.50;;;13.50;;
65658;SDS011;60181;53.258;6.932;2022-07-12T00:10:59;20.40;;;13.10;;
65658;SDS011;60181;53.258;6.932;2022-07-12T00:15:27;20.40;;;13.10;;
65658;SDS011;60181;53.258;6.932;2022-07-12T00:19:55;20.40;;;13.10;;
65658;SDS011;60181;53.258;6.932;2022-07-12T00:24:23;20.40;;;13.10;;
65658;SDS011;60181;53.258;6.932;2022-07-12T00:28:51;24.00;;;15.00;;
65658;SDS011;60181;53.258;6.932;2022-07-12T00:33:19;24.00;;;15.00;;
65658;SDS011;60181;53.258;6.932;2022-07-12T00:37:47;24.00;;;15.00;;
65658;SDS011;60181;53.258;6.932;2022-07-12T00:42:15;24.90;;;16.00;;
65658;SDS011;60181;53.258;6.932;2022-07-12T00:46:43;24.90;;;16.00;;
65658;SDS011;60181;53.258;6.932;2022-07-12T00:51:11;27.40;;;16.60;;
65658;SDS011;60181;53.258;6.932;2022-07-12T00:55:39;27.40;;;16.60;;
65658;SDS011;60181;53.258;6.932;2022-07-12T01:00:08;26.30;;;17.00;;
65658;SDS011;60181;53.258;6.932;2022-07-12T01:04:35;26.30;;;17.00;;
65658;SDS011;60181;53.258;6.932;2022-07-12T01:09:03;27.50;;;17.60;;
65658;SDS011;60181;53.258;6.932;2022-07-12T01:13:31;27.50;;;17.60;;
65658;SDS011;60181;53.258;6.932;2022-07-12T01:17:59;31.50;;;17.30;;
65658;SDS011;60181;53.258;6.932;2022-07-12T01:22:31;31.50;;;17.30;;
65658;SDS011;60181;53.258;6.932;2022-07-12T01:26:55;31.50;;;17.30;;
65658;SDS011;60181;53.258;6.932;2022-07-12T01:31:23;27.90;;;18.10;;
65658;SDS011;60181;53.258;6.932;2022-07-12T01:35:51;27.90;;;18.10;;
65658;SDS011;60181;53.258;6.932;2022-07-12T01:40:19;27.90;;;18.10;;
65658;SDS011;60181;53.258;6.932;2022-07-12T01:44:50;27.90;;;18.10;;
65658;SDS011;60181;53.258;6.932;2022-07-12T01:49:15;30.60;;;17.50;;
65658;SDS011;60181;53.258;6.932;2022-07-12T01:53:43;30.60;;;17.50;;
65658;SDS011;60181;53.258;6.932;2022-07-12T01:58:11;29.30;;;17.80;;
65658;SDS011;60181;53.258;6.932;2022-07-12T02:02:39;29.30;;;17.80;;
65658;SDS011;60181;53.258;6.932;2022-07-12T02:07:07;29.30;;;17.80;;
65658;SDS011;60181;53.258;6.932;2022-07-12T02:11:35;25.40;;;15.60;;
65658;SDS011;60181;53.258;6.932;2022-07-12T02:16:04;25.40;;;15.60;;
65658;SDS011;60181;53.258;6.932;2022-07-12T02:20:31;27.20;;;15.90;;
65658;SDS011;60181;53.258;6.932;2022-07-12T02:24:59;27.20;;;15.90;;
65658;SDS011;60181;53.258;6.932;2022-07-12T02:29:27;25.90;;;16.10;;
65658;SDS011;60181;53.258;6.932;2022-07-12T02:33:55;25.90;;;16.10;;
65658;SDS011;60181;53.258;6.932;2022-07-12T02:38:23;24.50;;;14.60;;
65658;SDS011;60181;53.258;6.932;2022-07-12T02:42:51;24.50;;;14.60;;
65658;SDS011;60181;53.258;6.932;2022-07-12T02:47:19;24.50;;;14.60;;
65658;SDS011;60181;53.258;6.932;2022-07-12T02:51:47;22.20;;;14.10;;
65658;SDS011;60181;53.258;6.932;2022-07-12T02:56:15;22.20;;;14.10;;
65658;SDS011;60181;53.258;6.932;2022-07-12T03:00:43;22.20;;;14.10;;
65658;SDS011;60181;53.258;6.932;2022-07-12T03:05:11;22.20;;;14.10;;
65658;SDS011;60181;53.258;6.932;2022-07-12T03:09:39;20.60;;;13.00;;
65658;SDS011;60181;53.258;6.932;2022-07-12T03:14:07;20.60;;;13.00;;
65658;SDS011;60181;53.258;6.932;2022-07-12T03:18:35;22.20;;;12.30;;
65658;SDS011;60181;53.258;6.932;2022-07-12T03:23:03;22.20;;;12.30;;
65658;SDS011;60181;53.258;6.932;2022-07-12T03:27:31;22.20;;;12.30;;
65658;SDS011;60181;53.258;6.932;2022-07-12T03:31:59;20.90;;;12.00;;
65658;SDS011;60181;53.258;6.932;2022-07-12T03:36:27;20.90;;;12.00;;
65658;SDS011;60181;53.258;6.932;2022-07-12T03:40:55;20.80;;;11.70;;
65658;SDS011;60181;53.258;6.932;2022-07-12T03:45:23;20.80;;;11.70;;
65658;SDS011;60181;53.258;6.932;2022-07-12T03:49:51;19.80;;;10.50;;
65658;SDS011;60181;53.258;6.932;2022-07-12T03:54:19;19.80;;;10.50;;
65658;SDS011;60181;53.258;6.932;2022-07-12T03:58:47;16.60;;;9.30;;
65658;SDS011;60181;53.258;6.932;2022-07-12T04:03:15;16.60;;;9.30;;
65658;SDS011;60181;53.258;6.932;2022-07-12T04:07:43;16.60;;;9.30;;
65658;SDS011;60181;53.258;6.932;2022-07-12T04:12:11;25.20;;;8.40;;
65658;SDS011;60181;53.258;6.932;2022-07-12T04:16:39;25.20;;;8.40;;
65658;SDS011;60181;53.258;6.932;2022-07-12T04:21:07;18.20;;;7.30;;
65658;SDS011;60181;53.258;6.932;2022-07-12T04:25:35;18.20;;;7.30;;
65658;SDS011;60181;53.258;6.932;2022-07-12T04:30:03;11.20;;;6.60;;
65658;SDS011;60181;53.258;6.932;2022-07-12T04:34:31;11.20;;;6.60;;
65658;SDS011;60181;53.258;6.932;2022-07-12T04:38:59;12.40;;;6.80;;
65658;SDS011;60181;53.258;6.932;2022-07-12T04:43:27;12.40;;;6.80;;
65658;SDS011;60181;53.258;6.932;2022-07-12T04:47:55;11.80;;;6.90;;
65658;SDS011;60181;53.258;6.932;2022-07-12T04:52:23;11.80;;;6.90;;
65658;SDS011;60181;53.258;6.932;2022-07-12T04:56:51;11.80;;;6.90;;
65658;SDS011;60181;53.258;6.932;2022-07-12T05:01:19;12.00;;;6.60;;
65658;SDS011;60181;53.258;6.932;2022-07-12T05:05:47;12.00;;;6.60;;
65658;SDS011;60181;53.258;6.932;2022-07-12T05:10:15;10.30;;;6.60;;
65658;SDS011;60181;53.258;6.932;2022-07-12T05:14:43;10.30;;;6.60;;
65658;SDS011;60181;53.258;6.932;2022-07-12T05:19:11;9.40;;;5.80;;
65658;SDS011;60181;53.258;6.932;2022-07-12T05:23:39;9.40;;;5.80;;
65658;SDS011;60181;53.258;6.932;2022-07-12T05:28:07;8.20;;;5.20;;
65658;SDS011;60181;53.258;6.932;2022-07-12T05:32:35;8.20;;;5.20;;
65658;SDS011;60181;53.258;6.932;2022-07-12T05:37:03;8.20;;;5.20;;
65658;SDS011;60181;53.258;6.932;2022-07-12T05:41:32;8.40;;;5.40;;
65658;SDS011;60181;53.258;6.932;2022-07-12T05:45:59;8.40;;;5.40;;
65658;SDS011;60181;53.258;6.932;2022-07-12T05:50:27;8.20;;;4.80;;
65658;SDS011;60181;53.258;6.932;2022-07-12T05:54:55;8.20;;;4.80;;
65658;SDS011;60181;53.258;6.932;2022-07-12T05:59:23;7.00;;;4.70;;
65658;SDS011;60181;53.258;6.932;2022-07-12T06:03:51;7.00;;;4.70;;
65658;SDS011;60181;53.258;6.932;2022-07-12T06:08:19;8.10;;;4.50;;
65658;SDS011;60181;53.258;6.932;2022-07-12T06:12:47;8.10;;;4.50;;
65658;SDS011;60181;53.258;6.932;2022-07-12T06:17:15;8.10;;;4.50;;
65658;SDS011;60181;53.258;6.932;2022-07-12T06:21:43;6.90;;;4.60;;
65658;SDS011;60181;53.258;6.932;2022-07-12T06:26:11;6.90;;;4.60;;
65658;SDS011;60181;53.258;6.932;2022-07-12T06:30:39;23.60;;;4.40;;
65658;SDS011;60181;53.258;6.932;2022-07-12T06:35:07;23.60;;;4.40;;
65658;SDS011;60181;53.258;6.932;2022-07-12T06:39:35;13.70;;;3.80;;
65658;SDS011;60181;53.258;6.932;2022-07-12T06:44:03;13.70;;;3.80;;
65658;SDS011;60181;53.258;6.932;2022-07-12T06:48:31;8.00;;;3.50;;
65658;SDS011;60181;53.258;6.932;2022-07-12T06:52:59;8.00;;;3.50;;
65658;SDS011;60181;53.258;6.932;2022-07-12T06:57:27;8.00;;;3.50;;
65658;SDS011;60181;53.258;6.932;2022-07-12T07:01:55;9.50;;;3.00;;
65658;SDS011;60181;53.258;6.932;2022-07-12T07:06:23;9.50;;;3.00;;
65658;SDS011;60181;53.258;6.932;2022-07-12T07:10:51;8.60;;;3.20;;
65658;SDS011;60181;53.258;6.932;2022-07-12T07:15:19;8.60;;;3.20;;
65658;SDS011;60181;53.258;6.932;2022-07-12T07:19:47;6.40;;;3.00;;
65658;SDS011;60181;53.258;6.932;2022-07-12T07:24:15;6.40;;;3.00;;
65658;SDS011;60181;53.258;6.932;2022-07-12T07:28:43;8.30;;;2.80;;
65658;SDS011;60181;53.258;6.932;2022-07-12T07:33:11;8.30;;;2.80;;
65658;SDS011;60181;53.258;6.932;2022-07-12T07:37:39;8.30;;;2.80;;
65658;SDS011;60181;53.258;6.932;2022-07-12T07:42:07;6.70;;;2.60;;
65658;SDS011;60181;53.258;6.932;2022-07-12T07:46:35;6.70;;;2.60;;
65658;SDS011;60181;53.258;6.932;2022-07-12T07:51:03;5.50;;;2.70;;
65658;SDS011;60181;53.258;6.932;2022-07-12T07:55:31;5.50;;;2.70;;
65658;SDS011;60181;53.258;6.932;2022-07-12T07:59:59;7.00;;;2.70;;
65658;SDS011;60181;53.258;6.932;2022-07-12T08:04:27;7.00;;;2.70;;
65658;SDS011;60181;53.258;6.932;2022-07-12T08:08:55;5.60;;;3.00;;
65658;SDS011;60181;53.258;6.932;2022-07-12T08:13:23;5.60;;;3.00;;
65658;SDS011;60181;53.258;6.932;2022-07-12T08:17:51;7.00;;;3.10;;
65658;SDS011;60181;53.258;6.932;2022-07-12T08:22:19;7.00;;;3.10;;
65658;SDS011;60181;53.258;6.932;2022-07-12T08:26:47;7.00;;;3.10;;
65658;SDS011;60181;53.258;6.932;2022-07-12T08:31:15;5.80;;;3.20;;
65658;SDS011;60181;53.258;6.932;2022-07-12T08:35:43;5.80;;;3.20;;
65658;SDS011;60181;53.258;6.932;2022-07-12T08:40:11;6.80;;;3.80;;
65658;SDS011;60181;53.258;6.932;2022-07-12T08:44:39;6.80;;;3.80;;
65658;SDS011;60181;53.258;6.932;2022-07-12T08:49:07;8.00;;;4.30;;
65658;SDS011;60181;53.258;6.932;2022-07-12T08:53:35;8.00;;;4.30;;
65658;SDS011;60181;53.258;6.932;2022-07-12T08:58:03;6.60;;;4.10;;
65658;SDS011;60181;53.258;6.932;2022-07-12T09:02:35;6.60;;;4.10;;
65658;SDS011;60181;53.258;6.932;2022-07-12T09:07:00;6.60;;;4.10;;
65658;SDS011;60181;53.258;6.932;2022-07-12T09:11:27;7.90;;;4.20;;
65658;SDS011;60181;53.258;6.932;2022-07-12T09:16:11;7.90;;;4.20;;
65658;SDS011;60181;53.258;6.932;2022-07-12T09:20:32;7.90;;;4.50;;
65658;SDS011;60181;53.258;6.932;2022-07-12T09:24:53;7.90;;;4.50;;
65658;SDS011;60181;53.258;6.932;2022-07-12T09:29:18;8.20;;;4.40;;
65658;SDS011;60181;53.258;6.932;2022-07-12T09:34:02;8.20;;;4.40;;
65658;SDS011;60181;53.258;6.932;2022-07-12T09:38:14;6.80;;;4.40;;
65658;SDS011;60181;53.258;6.932;2022-07-12T09:42:42;6.80;;;4.40;;
65658;SDS011;60181;53.258;6.932;2022-07-12T09:47:11;6.80;;;4.40;;
65658;SDS011;60181;53.258;6.932;2022-07-12T09:51:38;7.30;;;4.50;;
65658;SDS011;60181;53.258;6.932;2022-07-12T09:56:07;7.30;;;4.50;;
65658;SDS011;60181;53.258;6.932;2022-07-12T10:00:34;8.20;;;4.40;;
65658;SDS011;60181;53.258;6.932;2022-07-12T10:05:03;8.20;;;4.40;;
65658;SDS011;60181;53.258;6.932;2022-07-12T10:09:30;7.60;;;4.20;;
65658;SDS011;60181;53.258;6.932;2022-07-12T10:13:58;7.60;;;4.20;;
65658;SDS011;60181;53.258;6.932;2022-07-12T10:18:27;7.70;;;4.30;;
65658;SDS011;60181;53.258;6.932;2022-07-12T10:27:29;7.70;;;4.30;;
65658;SDS011;60181;53.258;6.932;2022-07-12T10:31:51;7.30;;;4.10;;
65658;SDS011;60181;53.258;6.932;2022-07-12T10:36:18;7.30;;;4.10;;
65658;SDS011;60181;53.258;6.932;2022-07-12T10:40:47;5.80;;;4.10;;
65658;SDS011;60181;53.258;6.932;2022-07-12T10:45:15;5.80;;;4.10;;
65658;SDS011;60181;53.258;6.932;2022-07-12T10:49:43;6.40;;;4.10;;
65658;SDS011;60181;53.258;6.932;2022-07-12T10:54:19;6.40;;;4.10;;
65658;SDS011;60181;53.258;6.932;2022-07-12T10:58:51;6.70;;;3.70;;
65658;SDS011;60181;53.258;6.932;2022-07-12T11:03:06;6.70;;;3.70;;
65658;SDS011;60181;53.258;6.932;2022-07-12T11:07:34;6.70;;;3.70;;
65658;SDS011;60181;53.258;6.932;2022-07-12T11:12:03;9.60;;;4.10;;
65658;SDS011;60181;53.258;6.932;2022-07-12T11:16:30;9.60;;;4.10;;
65658;SDS011;60181;53.258;6.932;2022-07-12T11:20:59;6.60;;;4.10;;
65658;SDS011;60181;53.258;6.932;2022-07-12T11:25:26;6.60;;;4.10;;
65658;SDS011;60181;53.258;6.932;2022-07-12T11:30:00;8.00;;;4.50;;
65658;SDS011;60181;53.258;6.932;2022-07-12T11:34:23;8.00;;;4.50;;
65658;SDS011;60181;53.258;6.932;2022-07-12T11:38:50;7.00;;;4.30;;
65658;SDS011;60181;53.258;6.932;2022-07-12T11:43:18;7.00;;;4.30;;
65658;SDS011;60181;53.258;6.932;2022-07-12T11:47:46;7.00;;;4.30;;
65658;SDS011;60181;53.258;6.932;2022-07-12T11:52:15;6.50;;;4.20;;
65658;SDS011;60181;53.258;6.932;2022-07-12T11:56:42;6.50;;;4.20;;
65658;SDS011;60181;53.258;6.932;2022-07-12T12:01:10;8.10;;;4.20;;
65658;SDS011;60181;53.258;6.932;2022-07-12T12:05:38;8.10;;;4.20;;
65658;SDS011;60181;53.258;6.932;2022-07-12T12:10:10;6.50;;;4.20;;
65658;SDS011;60181;53.258;6.932;2022-07-12T12:14:34;6.50;;;4.20;;
65658;SDS011;60181;53.258;6.932;2022-07-12T12:19:02;7.00;;;4.30;;
65658;SDS011;60181;53.258;6.932;2022-07-12T12:23:31;7.00;;;4.30;;
65658;SDS011;60181;53.258;6.932;2022-07-12T12:28:02;8.80;;;4.40;;
65658;SDS011;60181;53.258;6.932;2022-07-12T12:32:26;8.80;;;4.40;;
65658;SDS011;60181;53.258;6.932;2022-07-12T12:36:54;8.80;;;4.40;;
65658;SDS011;60181;53.258;6.932;2022-07-12T12:41:23;7.40;;;4.10;;
65658;SDS011;60181;53.258;6.932;2022-07-12T12:45:51;7.40;;;4.10;;
65658;SDS011;60181;53.258;6.932;2022-07-12T12:50:34;6.00;;;4.20;;
65658;SDS011;60181;53.258;6.932;2022-07-12T12:54:46;6.00;;;4.20;;
65658;SDS011;60181;53.258;6.932;2022-07-12T12:59:14;6.00;;;3.80;;
65658;SDS011;60181;53.258;6.932;2022-07-12T13:03:42;6.00;;;3.80;;
65658;SDS011;60181;53.258;6.932;2022-07-12T13:08:11;8.60;;;4.10;;
65658;SDS011;60181;53.258;6.932;2022-07-12T13:12:38;8.60;;;4.10;;
65658;SDS011;60181;53.258;6.932;2022-07-12T13:17:06;8.60;;;4.10;;
65658;SDS011;60181;53.258;6.932;2022-07-12T13:21:34;7.10;;;4.10;;
65658;SDS011;60181;53.258;6.932;2022-07-12T13:26:02;7.10;;;4.10;;
65658;SDS011;60181;53.258;6.932;2022-07-12T13:30:30;6.60;;;3.90;;
65658;SDS011;60181;53.258;6.932;2022-07-12T13:34:58;6.60;;;3.90;;
65658;SDS011;60181;53.258;6.932;2022-07-12T13:39:26;8.60;;;4.50;;
65658;SDS011;60181;53.258;6.932;2022-07-12T13:43:54;8.60;;;4.50;;
65658;SDS011;60181;53.258;6.932;2022-07-12T13:48:22;7.80;;;5.10;;
65658;SDS011;60181;53.258;6.932;2022-07-12T13:52:50;7.80;;;5.10;;
65658;SDS011;60181;53.258;6.932;2022-07-12T13:57:18;7.80;;;5.10;;
65658;SDS011;60181;53.258;6.932;2022-07-12T14:01:46;8.30;;;4.80;;
65658;SDS011;60181;53.258;6.932;2022-07-12T14:06:14;8.30;;;4.80;;
65658;SDS011;60181;53.258;6.932;2022-07-12T14:10:42;8.70;;;4.60;;
65658;SDS011;60181;53.258;6.932;2022-07-12T14:15:10;8.70;;;4.60;;
65658;SDS011;60181;53.258;6.932;2022-07-12T14:19:38;6.40;;;4.00;;
65658;SDS011;60181;53.258;6.932;2022-07-12T14:24:06;6.40;;;4.00;;
65658;SDS011;60181;53.258;6.932;2022-07-12T14:28:34;8.00;;;4.20;;
65658;SDS011;60181;53.258;6.932;2022-07-12T14:33:02;8.00;;;4.20;;
65658;SDS011;60181;53.258;6.932;2022-07-12T14:37:30;8.00;;;4.20;;
65658;SDS011;60181;53.258;6.932;2022-07-12T14:41:59;7.50;;;4.00;;
65658;SDS011;60181;53.258;6.932;2022-07-12T14:46:26;7.50;;;4.00;;
65658;SDS011;60181;53.258;6.932;2022-07-12T14:50:54;6.60;;;3.80;;
65658;SDS011;60181;53.258;6.932;2022-07-12T14:55:22;6.60;;;3.80;;
65658;SDS011;60181;53.258;6.932;2022-07-12T14:59:50;7.00;;;3.90;;
65658;SDS011;60181;53.258;6.932;2022-07-12T15:04:18;7.00;;;3.90;;
65658;SDS011;60181;53.258;6.932;2022-07-12T15:08:46;5.80;;;3.90;;
65658;SDS011;60181;53.258;6.932;2022-07-12T15:13:14;5.80;;;3.90;;
65658;SDS011;60181;53.258;6.932;2022-07-12T15:17:42;5.80;;;3.90;;
65658;SDS011;60181;53.258;6.932;2022-07-12T15:22:10;7.10;;;3.90;;
65658;SDS011;60181;53.258;6.932;2022-07-12T15:26:38;7.10;;;3.90;;
65658;SDS011;60181;53.258;6.932;2022-07-12T15:31:06;5.30;;;3.70;;
65658;SDS011;60181;53.258;6.932;2022-07-12T15:35:34;5.30;;;3.70;;
65658;SDS011;60181;53.258;6.932;2022-07-12T15:40:02;4.90;;;3.60;;
65658;SDS011;60181;53.258;6.932;2022-07-12T15:44:30;4.90;;;3.60;;
65658;SDS011;60181;53.258;6.932;2022-07-12T15:48:58;4.90;;;3.40;;
65658;SDS011;60181;53.258;6.932;2022-07-12T15:53:26;4.90;;;3.40;;
65658;SDS011;60181;53.258;6.932;2022-07-12T15:57:54;4.40;;;3.30;;
65658;SDS011;60181;53.258;6.932;2022-07-12T16:02:22;4.40;;;3.30;;
65658;SDS011;60181;53.258;6.932;2022-07-12T16:06:50;4.40;;;3.30;;
65658;SDS011;60181;53.258;6.932;2022-07-12T16:11:18;6.60;;;3.50;;
65658;SDS011;60181;53.258;6.932;2022-07-12T16:15:46;6.60;;;3.50;;
65658;SDS011;60181;53.258;6.932;2022-07-12T16:20:14;4.90;;;3.60;;
65658;SDS011;60181;53.258;6.932;2022-07-12T16:24:42;4.90;;;3.60;;
65658;SDS011;60181;53.258;6.932;2022-07-12T16:29:10;5.20;;;3.60;;
65658;SDS011;60181;53.258;6.932;2022-07-12T16:33:38;5.20;;;3.60;;
65658;SDS011;60181;53.258;6.932;2022-07-12T16:38:06;6.20;;;3.60;;
65658;SDS011;60181;53.258;6.932;2022-07-12T16:42:34;6.20;;;3.60;;
65658;SDS011;60181;53.258;6.932;2022-07-12T16:47:02;6.20;;;3.60;;
65658;SDS011;60181;53.258;6.932;2022-07-12T16:51:30;5.90;;;3.80;;
65658;SDS011;60181;53.258;6.932;2022-07-12T16:55:58;5.90;;;3.80;;
65658;SDS011;60181;53.258;6.932;2022-07-12T17:00:26;5.30;;;3.60;;
65658;SDS011;60181;53.258;6.932;2022-07-12T17:04:54;5.30;;;3.60;;
65658;SDS011;60181;53.258;6.932;2022-07-12T17:09:22;6.00;;;3.30;;
65658;SDS011;60181;53.258;6.932;2022-07-12T17:13:50;6.00;;;3.30;;
65658;SDS011;60181;53.258;6.932;2022-07-12T17:18:18;26.20;;;11.00;;
65658;SDS011;60181;53.258;6.932;2022-07-12T17:22:46;26.20;;;11.00;;
65658;SDS011;60181;53.258;6.932;2022-07-12T17:27:14;26.20;;;11.00;;
65658;SDS011;60181;53.258;6.932;2022-07-12T17:31:42;18.10;;;8.30;;
65658;SDS011;60181;53.258;6.932;2022-07-12T17:36:10;18.10;;;8.30;;
65658;SDS011;60181;53.258;6.932;2022-07-12T17:40:38;15.10;;;8.10;;
65658;SDS011;60181;53.258;6.932;2022-07-12T17:45:06;15.10;;;8.10;;
65658;SDS011;60181;53.258;6.932;2022-07-12T17:49:34;13.00;;;7.20;;
65658;SDS011;60181;53.258;6.932;2022-07-12T17:54:02;13.00;;;7.20;;
65658;SDS011;60181;53.258;6.932;2022-07-12T17:58:30;14.70;;;7.00;;
65658;SDS011;60181;53.258;6.932;2022-07-12T18:03:01;14.70;;;7.00;;
65658;SDS011;60181;53.258;6.932;2022-07-12T18:07:26;14.70;;;7.00;;
65658;SDS011;60181;53.258;6.932;2022-07-12T18:11:54;15.60;;;6.60;;
65658;SDS011;60181;53.258;6.932;2022-07-12T18:16:22;15.60;;;6.60;;
65658;SDS011;60181;53.258;6.932;2022-07-12T18:20:50;14.90;;;6.40;;
65658;SDS011;60181;53.258;6.932;2022-07-12T18:25:18;14.90;;;6.40;;
65658;SDS011;60181;53.258;6.932;2022-07-12T18:29:46;12.70;;;6.30;;
65658;SDS011;60181;53.258;6.932;2022-07-12T18:34:14;12.70;;;6.30;;
65658;SDS011;60181;53.258;6.932;2022-07-12T18:38:42;11.80;;;5.70;;
65658;SDS011;60181;53.258;6.932;2022-07-12T18:43:10;11.80;;;5.70;;
65658;SDS011;60181;53.258;6.932;2022-07-12T18:47:38;11.80;;;5.70;;
65658;SDS011;60181;53.258;6.932;2022-07-12T18:52:06;11.00;;;5.40;;
65658;SDS011;60181;53.258;6.932;2022-07-12T18:56:34;11.00;;;5.40;;
65658;SDS011;60181;53.258;6.932;2022-07-12T19:01:02;9.90;;;5.20;;
65658;SDS011;60181;53.258;6.932;2022-07-12T19:05:30;9.90;;;5.20;;
65658;SDS011;60181;53.258;6.932;2022-07-12T19:09:58;9.00;;;5.00;;
65658;SDS011;60181;53.258;6.932;2022-07-12T19:14:26;9.00;;;5.00;;
65658;SDS011;60181;53.258;6.932;2022-07-12T19:18:54;9.40;;;4.60;;
65658;SDS011;60181;53.258;6.932;2022-07-12T19:23:22;9.40;;;4.60;;
65658;SDS011;60181;53.258;6.932;2022-07-12T19:27:50;5.90;;;4.10;;
65658;SDS011;60181;53.258;6.932;2022-07-12T19:32:18;5.90;;;4.10;;
65658;SDS011;60181;53.258;6.932;2022-07-12T19:36:46;5.90;;;4.10;;
65658;SDS011;60181;53.258;6.932;2022-07-12T19:41:14;7.90;;;4.10;;
65658;SDS011;60181;53.258;6.932;2022-07-12T19:45:42;7.90;;;4.10;;
65658;SDS011;60181;53.258;6.932;2022-07-12T19:50:10;6.90;;;4.00;;
65658;SDS011;60181;53.258;6.932;2022-07-12T19:54:38;6.90;;;4.00;;
65658;SDS011;60181;53.258;6.932;2022-07-12T19:59:06;9.10;;;4.20;;
65658;SDS011;60181;53.258;6.932;2022-07-12T20:03:34;9.10;;;4.20;;
65658;SDS011;60181;53.258;6.932;2022-07-12T20:08:02;9.80;;;4.40;;
65658;SDS011;60181;53.258;6.932;2022-07-12T20:12:30;9.80;;;4.40;;
65658;SDS011;60181;53.258;6.932;2022-07-12T20:16:58;9.80;;;4.40;;
65658;SDS011;60181;53.258;6.932;2022-07-12T20:21:26;10.70;;;4.70;;
65658;SDS011;60181;53.258;6.932;2022-07-12T20:25:54;10.70;;;4.70;;
65658;SDS011;60181;53.258;6.932;2022-07-12T20:30:22;9.10;;;5.20;;
65658;SDS011;60181;53.258;6.932;2022-07-12T20:34:50;9.10;;;5.20;;
65658;SDS011;60181;53.258;6.932;2022-07-12T20:39:18;11.50;;;5.10;;
65658;SDS011;60181;53.258;6.932;2022-07-12T20:43:46;11.50;;;5.10;;
65658;SDS011;60181;53.258;6.932;2022-07-12T20:48:14;12.80;;;5.50;;
65658;SDS011;60181;53.258;6.932;2022-07-12T20:52:42;12.80;;;5.50;;
65658;SDS011;60181;53.258;6.932;2022-07-12T20:57:10;12.80;;;5.50;;
65658;SDS011;60181;53.258;6.932;2022-07-12T21:01:41;9.50;;;5.00;;
65658;SDS011;60181;53.258;6.932;2022-07-12T21:06:06;9.50;;;5.00;;
65658;SDS011;60181;53.258;6.932;2022-07-12T21:10:33;10.00;;;5.00;;
65658;SDS011;60181;53.258;6.932;2022-07-12T21:15:02;10.00;;;5.00;;
65658;SDS011;60181;53.258;6.932;2022-07-12T21:19:29;9.60;;;4.70;;
65658;SDS011;60181;53.258;6.932;2022-07-12T21:23:57;9.60;;;4.70;;
65658;SDS011;60181;53.258;6.932;2022-07-12T21:28:25;9.90;;;4.80;;
65658;SDS011;60181;53.258;6.932;2022-07-12T21:32:54;9.90;;;4.80;;
65658;SDS011;60181;53.258;6.932;2022-07-12T21:37:21;9.90;;;4.80;;
65658;SDS011;60181;53.258;6.932;2022-07-12T21:41:49;7.50;;;4.30;;
65658;SDS011;60181;53.258;6.932;2022-07-12T21:46:17;7.50;;;4.30;;
65658;SDS011;60181;53.258;6.932;2022-07-12T21:50:45;6.90;;;4.70;;
65658;SDS011;60181;53.258;6.932;2022-07-12T21:55:13;6.90;;;4.70;;
65658;SDS011;60181;53.258;6.932;2022-07-12T21:59:41;7.30;;;4.40;;
65658;SDS011;60181;53.258;6.932;2022-07-12T22:04:09;7.30;;;4.40;;
65658;SDS011;60181;53.258;6.932;2022-07-12T22:08:37;6.90;;;4.50;;
65658;SDS011;60181;53.258;6.932;2022-07-12T22:13:06;6.90;;;4.50;;
65658;SDS011;60181;53.258;6.932;2022-07-12T22:17:33;6.90;;;4.50;;
65658;SDS011;60181;53.258;6.932;2022-07-12T22:22:01;6.80;;;4.60;;
65658;SDS011;60181;53.258;6.932;2022-07-12T22:26:29;6.80;;;4.60;;
65658;SDS011;60181;53.258;6.932;2022-07-12T22:30:57;13.90;;;5.10;;
65658;SDS011;60181;53.258;6.932;2022-07-12T22:35:25;13.90;;;5.10;;
65658;SDS011;60181;53.258;6.932;2022-07-12T22:39:53;13.10;;;5.60;;
65658;SDS011;60181;53.258;6.932;2022-07-12T22:44:21;13.10;;;5.60;;
65658;SDS011;60181;53.258;6.932;2022-07-12T22:48:49;13.10;;;5.20;;
65658;SDS011;60181;53.258;6.932;2022-07-12T22:53:17;13.10;;;5.20;;
65658;SDS011;60181;53.258;6.932;2022-07-12T22:57:45;13.10;;;5.20;;
65658;SDS011;60181;53.258;6.932;2022-07-12T23:02:13;11.50;;;5.60;;
65658;SDS011;60181;53.258;6.932;2022-07-12T23:06:41;11.50;;;5.60;;
65658;SDS011;60181;53.258;6.932;2022-07-12T23:11:09;11.70;;;5.60;;
65658;SDS011;60181;53.258;6.932;2022-07-12T23:15:37;11.70;;;5.60;;
65658;SDS011;60181;53.258;6.932;2022-07-12T23:20:06;11.00;;;5.90;;
65658;SDS011;60181;53.258;6.932;2022-07-12T23:24:33;11.00;;;5.90;;
65658;SDS011;60181;53.258;6.932;2022-07-12T23:29:01;14.90;;;5.80;;
65658;SDS011;60181;53.258;6.932;2022-07-12T23:33:29;14.90;;;5.80;;
65658;SDS011;60181;53.258;6.932;2022-07-12T23:37:57;9.70;;;5.80;;
65658;SDS011;60181;53.258;6.932;2022-07-12T23:42:25;9.70;;;5.80;;
65658;SDS011;60181;53.258;6.932;2022-07-12T23:46:53;9.70;;;5.80;;
65658;SDS011;60181;53.258;6.932;2022-07-12T23:51:21;13.10;;;6.00;;
65658;SDS011;60181;53.258;6.932;2022-07-12T23:55:49;13.10;;;6.00;;
